createdAt,value
2022-09-17T00:00:48.307Z,3.05
2022-09-17T00:03:16.286Z,2.90
2022-09-17T00:05:43.548Z,2.97
2022-09-17T00:08:15.141Z,3.12
2022-09-17T00:10:43.807Z,3.47
2022-09-17T00:13:11.871Z,3.15
2022-09-17T00:15:43.485Z,3.70
2022-09-17T00:18:11.311Z,3.30
2022-09-17T00:20:45.640Z,3.70
2022-09-17T00:23:13.975Z,3.40
2022-09-17T00:25:42.517Z,3.20
2022-09-17T00:28:09.777Z,3.45
2022-09-17T00:30:40.470Z,3.47
2022-09-17T00:33:07.364Z,3.50
2022-09-17T00:35:34.490Z,3.65
2022-09-17T00:38:01.369Z,3.60
2022-09-17T00:40:28.371Z,3.03
2022-09-17T00:42:55.284Z,3.53
2022-09-17T00:45:22.998Z,3.22
2022-09-17T00:47:58.841Z,3.05
2022-09-17T00:50:42.317Z,3.42
2022-09-17T00:53:14.851Z,3.10
2022-09-17T00:55:45.944Z,3.30
2022-09-17T00:58:13.674Z,3.12
2022-09-17T01:00:40.822Z,3.30
2022-09-17T01:03:07.997Z,2.70
2022-09-17T01:05:42.745Z,3.37
2022-09-17T01:08:34.609Z,2.85
2022-09-17T01:11:12.547Z,2.97
2022-09-17T01:14:06.739Z,3.00
2022-09-17T01:16:46.205Z,3.15
2022-09-17T01:19:38.894Z,2.90
2022-09-17T01:22:23.489Z,2.92
2022-09-17T01:25:05.131Z,2.90
2022-09-17T01:28:13.932Z,2.87
2022-09-17T01:34:01.625Z,3.12
2022-09-17T01:36:38.594Z,3.08
2022-09-17T01:39:45.443Z,3.25
2022-09-17T01:42:38.324Z,2.90
2022-09-17T01:45:10.334Z,2.87
2022-09-17T01:47:44.976Z,3.33
2022-09-17T01:50:20.626Z,3.20
2022-09-17T01:52:50.169Z,2.87
2022-09-17T01:55:18.962Z,3.00
2022-09-17T01:57:54.017Z,3.00
2022-09-17T02:00:22.302Z,3.30
2022-09-17T02:03:08.524Z,3.90
2022-09-17T02:05:42.288Z,2.90
2022-09-17T02:08:16.338Z,4.32
2022-09-17T02:10:46.057Z,2.62
2022-09-17T02:13:33.332Z,3.03
2022-09-17T02:16:08.807Z,2.92
2022-09-17T02:18:57.347Z,2.58
2022-09-17T02:21:55.265Z,2.53
2022-09-17T02:24:25.909Z,2.50
2022-09-17T02:27:17.477Z,2.50
2022-09-17T02:29:45.259Z,2.78
2022-09-17T02:32:13.621Z,2.92
2022-09-17T02:34:40.630Z,2.67
2022-09-17T02:37:08.003Z,2.40
2022-09-17T02:39:35.127Z,2.67
2022-09-17T02:42:23.454Z,2.50
2022-09-17T02:45:06.347Z,2.40
2022-09-17T02:48:30.497Z,2.58
2022-09-17T02:51:33.438Z,2.60
2022-09-17T02:54:16.846Z,2.72
2022-09-17T02:56:52.234Z,2.60
2022-09-17T02:59:31.766Z,2.62
2022-09-17T03:02:20.136Z,2.65
2022-09-17T03:04:48.930Z,2.92
2022-09-17T03:07:18.443Z,2.62
2022-09-17T03:09:45.508Z,2.70
2022-09-17T03:12:13.393Z,2.37
2022-09-17T03:14:40.246Z,2.35
2022-09-17T03:17:07.235Z,2.53
2022-09-17T03:19:34.122Z,2.67
2022-09-17T03:22:00.971Z,2.60
2022-09-17T03:24:27.845Z,2.50
2022-09-17T03:26:55.144Z,2.90
2022-09-17T03:29:22.026Z,2.87
2022-09-17T03:31:48.977Z,2.40
2022-09-17T03:34:15.881Z,2.30
2022-09-17T03:36:42.841Z,2.50
2022-09-17T03:39:09.796Z,2.53
2022-09-17T03:41:36.714Z,2.80
2022-09-17T03:44:03.753Z,2.97
2022-09-17T03:46:30.847Z,2.60
2022-09-17T03:48:57.789Z,2.35
2022-09-17T03:51:24.696Z,2.40
2022-09-17T03:53:51.585Z,2.80
2022-09-17T03:56:18.548Z,2.85
2022-09-17T03:58:45.476Z,3.00
2022-09-17T04:01:12.366Z,3.47
2022-09-17T04:03:39.335Z,2.30
2022-09-17T04:06:06.460Z,3.05
2022-09-17T04:08:34.126Z,2.50
2022-09-17T04:11:01.005Z,2.65
2022-09-17T04:13:27.921Z,2.67
2022-09-17T04:15:55.155Z,2.50
2022-09-17T04:18:22.131Z,2.20
2022-09-17T04:20:48.971Z,2.42
2022-09-17T04:23:15.851Z,2.60
2022-09-17T04:25:43.085Z,2.47
2022-09-17T04:28:10.234Z,2.80
2022-09-17T04:30:37.394Z,2.60
2022-09-17T04:33:04.885Z,2.70
2022-09-17T04:35:31.795Z,2.72
2022-09-17T04:37:58.668Z,2.30
2022-09-17T04:40:26.575Z,2.47
2022-09-17T04:42:59.608Z,2.78
2022-09-17T04:45:26.742Z,2.47
2022-09-17T04:47:53.621Z,2.70
2022-09-17T04:50:20.595Z,2.75
2022-09-17T04:52:47.986Z,2.53
2022-09-17T04:55:15.699Z,2.78
2022-09-17T04:57:50.832Z,2.53
2022-09-17T05:00:19.009Z,3.00
2022-09-17T05:02:47.558Z,2.50
2022-09-17T05:05:14.786Z,2.50
2022-09-17T05:07:42.077Z,2.92
2022-09-17T05:10:09.983Z,2.50
2022-09-17T05:12:36.905Z,2.53
2022-09-17T05:15:04.765Z,2.22
2022-09-17T05:17:31.984Z,2.53
2022-09-17T05:19:58.836Z,2.33
2022-09-17T05:22:25.756Z,2.35
2022-09-17T05:24:52.671Z,2.28
2022-09-17T05:27:19.601Z,2.40
2022-09-17T05:29:46.884Z,2.45
2022-09-17T05:32:13.745Z,2.60
2022-09-17T05:34:41.656Z,2.67
2022-09-17T05:37:11.789Z,2.78
2022-09-17T05:39:38.636Z,2.60
2022-09-17T05:42:05.705Z,2.53
2022-09-17T05:44:32.848Z,2.65
2022-09-17T05:46:59.952Z,2.50
2022-09-17T05:49:26.930Z,2.65
2022-09-17T05:51:53.776Z,3.03
2022-09-17T05:54:20.843Z,2.70
2022-09-17T05:56:47.778Z,3.00
2022-09-17T05:59:15.762Z,2.87
2022-09-17T06:01:42.911Z,2.80
2022-09-17T06:04:09.868Z,3.00
2022-09-17T06:06:38.025Z,2.87
2022-09-17T06:09:08.963Z,2.95
2022-09-17T06:11:36.689Z,3.03
2022-09-17T06:14:03.944Z,3.28
2022-09-17T06:16:31.211Z,3.00
2022-09-17T06:18:58.156Z,2.90
2022-09-17T06:21:25.010Z,3.08
2022-09-17T06:23:51.980Z,3.20
2022-09-17T06:26:19.091Z,3.25
2022-09-17T06:28:46.471Z,3.20
2022-09-17T06:31:14.073Z,3.08
2022-09-17T06:33:41.102Z,3.50
2022-09-17T06:36:14.164Z,2.78
2022-09-17T06:38:41.696Z,2.97
2022-09-17T06:41:09.071Z,2.80
2022-09-17T06:43:36.136Z,2.97
2022-09-17T06:46:06.319Z,2.90
2022-09-17T06:48:35.203Z,2.78
2022-09-17T06:51:04.647Z,2.70
2022-09-17T06:53:32.025Z,2.70
2022-09-17T06:56:05.239Z,2.90
2022-09-17T06:58:34.190Z,3.55
2022-09-17T07:01:02.040Z,3.22
2022-09-17T07:03:30.268Z,2.70
2022-09-17T07:05:57.941Z,3.12
2022-09-17T07:08:26.249Z,3.40
2022-09-17T07:10:56.928Z,3.25
2022-09-17T07:13:24.654Z,3.37
2022-09-17T07:15:59.482Z,3.03
2022-09-17T07:18:27.052Z,3.53
2022-09-17T07:21:01.131Z,3.20
2022-09-17T07:23:30.242Z,3.25
2022-09-17T07:25:59.268Z,3.17
2022-09-17T07:28:26.662Z,3.30
2022-09-17T07:30:54.002Z,4.30
2022-09-17T07:33:26.119Z,3.58
2022-09-17T07:35:58.044Z,2.97
2022-09-17T07:38:25.665Z,3.45
2022-09-17T07:41:06.118Z,3.25
2022-09-17T07:43:34.515Z,3.20
2022-09-17T07:46:03.453Z,3.45
2022-09-17T07:48:30.545Z,3.40
2022-09-17T07:50:57.519Z,3.20
2022-09-17T07:53:24.630Z,3.30
2022-09-17T07:55:55.992Z,2.90
2022-09-17T07:58:34.588Z,3.45
2022-09-17T08:01:03.386Z,3.55
2022-09-17T08:03:30.792Z,3.40
2022-09-17T08:06:08.803Z,3.55
2022-09-17T08:08:36.720Z,3.42
2022-09-17T08:11:23.688Z,3.65
2022-09-17T08:14:00.064Z,3.62
2022-09-17T08:16:27.062Z,3.45
2022-09-17T08:18:57.790Z,3.33
2022-09-17T08:21:24.897Z,3.45
2022-09-17T08:23:51.791Z,3.60
2022-09-17T08:26:21.741Z,3.42
2022-09-17T08:28:56.610Z,3.50
2022-09-17T08:31:25.400Z,3.75
2022-09-17T08:33:52.375Z,3.70
2022-09-17T08:36:21.345Z,3.17
2022-09-17T08:38:49.866Z,3.45
2022-09-17T08:41:24.659Z,3.30
2022-09-17T08:44:31.943Z,2.92
2022-09-17T08:47:02.060Z,3.67
2022-09-17T08:49:34.920Z,3.17
2022-09-17T08:52:07.184Z,3.55
2022-09-17T08:54:55.096Z,2.87
2022-09-17T08:57:24.973Z,2.95
2022-09-17T08:59:57.845Z,3.15
2022-09-17T09:02:39.460Z,3.58
2022-09-17T09:05:10.819Z,3.15
2022-09-17T09:07:43.368Z,3.20
2022-09-17T09:10:17.977Z,3.42
2022-09-17T09:12:45.125Z,3.20
2022-09-17T09:15:45.889Z,2.80
2022-09-17T09:18:27.492Z,3.17
2022-09-17T09:20:59.964Z,3.62
2022-09-17T09:23:58.751Z,3.30
2022-09-17T09:26:46.391Z,3.37
2022-09-17T09:29:31.592Z,3.03
2022-09-17T09:32:16.689Z,2.70
2022-09-17T09:34:44.306Z,2.95
2022-09-17T09:37:14.124Z,3.05
2022-09-17T09:39:46.048Z,3.15
2022-09-17T09:42:25.412Z,3.40
2022-09-17T09:44:52.373Z,3.37
2022-09-17T09:47:40.340Z,3.22
2022-09-17T09:50:48.381Z,3.30
2022-09-17T09:53:26.193Z,3.33
2022-09-17T09:55:55.973Z,3.55
2022-09-17T09:58:40.737Z,3.17
2022-09-17T10:01:16.509Z,3.37
2022-09-17T10:03:46.406Z,3.30
2022-09-17T10:06:16.877Z,3.08
2022-09-17T10:09:03.610Z,3.28
2022-09-17T10:11:34.902Z,3.60
2022-09-17T10:14:18.478Z,3.78
2022-09-17T10:16:45.576Z,3.78
2022-09-17T10:19:28.000Z,3.30
2022-09-17T10:21:54.989Z,3.55
2022-09-17T10:24:27.991Z,3.08
2022-09-17T10:27:06.308Z,3.62
2022-09-17T10:29:33.877Z,3.90
2022-09-17T10:32:00.949Z,4.20
2022-09-17T10:34:29.691Z,3.60
2022-09-17T10:36:57.434Z,3.30
2022-09-17T10:39:27.316Z,4.00
2022-09-17T10:42:17.443Z,3.87
2022-09-17T10:45:04.700Z,4.00
2022-09-17T10:47:36.933Z,3.80
2022-09-17T10:50:16.557Z,3.80
2022-09-17T10:52:49.249Z,3.87
2022-09-17T10:55:35.188Z,4.25
2022-09-17T10:58:08.237Z,4.12
2022-09-17T11:00:35.055Z,3.75
2022-09-17T11:03:17.329Z,3.87
2022-09-17T11:05:57.948Z,3.80
2022-09-17T11:08:42.805Z,4.00
2022-09-17T11:11:12.389Z,3.80
2022-09-17T11:13:55.023Z,3.70
2022-09-17T11:16:46.966Z,3.33
2022-09-17T11:19:22.914Z,3.80
2022-09-17T11:22:04.509Z,3.70
2022-09-17T11:24:59.219Z,3.22
2022-09-17T11:27:50.491Z,4.03
2022-09-17T11:30:18.434Z,3.60
2022-09-17T11:32:55.070Z,3.35
2022-09-17T11:35:25.958Z,3.25
2022-09-17T11:38:03.993Z,2.70
2022-09-17T11:40:42.918Z,2.67
2022-09-17T11:43:26.766Z,2.58
2022-09-17T11:46:13.939Z,2.55
2022-09-17T11:49:16.978Z,2.95
2022-09-17T11:51:59.039Z,2.78
2022-09-17T11:54:30.379Z,2.90
2022-09-17T11:57:12.099Z,2.90
2022-09-17T11:59:54.687Z,3.10
2022-09-17T12:02:39.163Z,2.90
2022-09-17T12:05:11.887Z,3.20
2022-09-17T12:07:47.645Z,3.00
2022-09-17T12:10:33.335Z,3.28
2022-09-17T12:13:14.567Z,2.80
2022-09-17T12:15:49.744Z,2.85
2022-09-17T12:18:32.956Z,2.47
2022-09-17T12:21:02.902Z,2.00
2022-09-17T12:23:40.635Z,1.95
2022-09-17T12:26:22.812Z,1.80
2022-09-17T12:28:57.736Z,1.60
2022-09-17T12:31:37.490Z,1.87
2022-09-17T12:34:32.487Z,1.70
2022-09-17T12:37:22.626Z,1.85
2022-09-17T12:39:58.586Z,1.80
2022-09-17T12:42:38.938Z,1.45
2022-09-17T12:45:32.859Z,1.65
2022-09-17T12:48:25.505Z,1.15
2022-09-17T12:51:19.801Z,1.40
2022-09-17T12:53:46.647Z,1.50
2022-09-17T12:56:54.015Z,1.30
2022-09-17T12:59:22.632Z,1.40
2022-09-17T13:02:05.075Z,1.37
2022-09-17T13:05:00.989Z,1.17
2022-09-17T13:07:48.631Z,1.12
2022-09-17T13:10:41.222Z,1.70
2022-09-17T13:13:49.731Z,1.12
2022-09-17T13:16:24.212Z,1.23
2022-09-17T13:19:16.232Z,1.30
2022-09-17T13:21:50.866Z,1.02
2022-09-17T13:24:20.211Z,1.20
2022-09-17T13:26:47.131Z,1.20
2022-09-17T13:29:48.857Z,1.02
2022-09-17T13:32:51.486Z,1.20
2022-09-17T13:35:18.352Z,0.98
2022-09-17T13:37:54.224Z,1.30
2022-09-17T13:40:28.467Z,1.10
2022-09-17T13:42:57.559Z,1.23
2022-09-17T13:45:25.537Z,1.37
2022-09-17T13:47:56.497Z,1.25
2022-09-17T13:50:34.083Z,1.10
2022-09-17T13:53:16.105Z,1.37
2022-09-17T13:55:48.405Z,1.10
2022-09-17T13:58:21.133Z,1.20
2022-09-17T14:00:58.944Z,1.27
2022-09-17T14:03:31.816Z,1.42
2022-09-17T14:06:19.643Z,1.40
2022-09-17T14:11:25.448Z,1.60
2022-09-17T14:13:55.663Z,1.52
2022-09-17T14:16:29.362Z,1.48
2022-09-17T14:19:22.543Z,1.60
2022-09-17T14:21:59.832Z,1.60
2022-09-17T14:27:16.411Z,1.40
2022-09-17T14:29:49.342Z,1.62
2022-09-17T14:32:46.928Z,1.50
2022-09-17T14:35:20.200Z,1.57
2022-09-17T14:37:55.105Z,1.50
2022-09-17T14:40:24.747Z,1.50
2022-09-17T14:42:55.344Z,1.45
2022-09-17T14:45:37.506Z,1.70
2022-09-17T14:48:26.647Z,1.62
2022-09-17T14:51:11.554Z,1.30
2022-09-17T14:53:38.456Z,1.40
2022-09-17T14:56:05.836Z,1.52
2022-09-17T14:58:36.684Z,1.17
2022-09-17T15:01:03.765Z,1.60
2022-09-17T15:03:30.640Z,1.73
2022-09-17T15:05:57.565Z,1.80
2022-09-17T15:08:26.073Z,1.60
2022-09-17T15:11:04.418Z,1.40
2022-09-17T15:13:36.124Z,1.60
2022-09-17T15:16:05.126Z,1.50
2022-09-17T15:18:55.157Z,1.55
2022-09-17T15:21:43.215Z,1.62
2022-09-17T15:24:21.920Z,1.50
2022-09-17T15:26:54.098Z,1.50
2022-09-17T15:29:27.425Z,1.40
2022-09-17T15:31:54.479Z,1.65
2022-09-17T15:34:22.840Z,1.55
2022-09-17T15:37:18.696Z,1.40
2022-09-17T15:39:51.541Z,1.60
2022-09-17T15:42:27.854Z,1.87
2022-09-17T15:45:17.203Z,1.85
2022-09-17T15:47:58.879Z,1.75
2022-09-17T15:50:33.125Z,2.00
2022-09-17T15:53:09.182Z,2.10
2022-09-17T15:55:38.521Z,1.80
2022-09-17T15:58:21.310Z,1.85
2022-09-17T16:00:48.270Z,1.48
2022-09-17T16:03:36.841Z,2.03
2022-09-17T16:06:04.940Z,2.10
2022-09-17T16:08:35.473Z,1.80
2022-09-17T16:11:02.412Z,1.60
2022-09-17T16:13:29.292Z,1.83
2022-09-17T16:15:56.306Z,1.70
2022-09-17T16:18:23.293Z,1.70
2022-09-17T16:20:50.143Z,1.58
2022-09-17T16:23:17.036Z,2.33
2022-09-17T16:25:44.199Z,1.90
2022-09-17T16:28:13.994Z,1.90
2022-09-17T16:30:48.433Z,2.25
2022-09-17T16:33:16.926Z,2.03
2022-09-17T16:35:44.220Z,1.92
2022-09-17T16:38:11.845Z,1.80
2022-09-17T16:40:43.290Z,1.92
2022-09-17T16:43:10.239Z,1.80
2022-09-17T16:45:37.407Z,1.90
2022-09-17T16:48:05.312Z,2.08
2022-09-17T16:50:32.645Z,1.95
2022-09-17T16:53:04.165Z,2.20
2022-09-17T16:55:31.923Z,1.83
2022-09-17T16:57:59.177Z,1.80
2022-09-17T17:00:26.116Z,1.80
2022-09-17T17:02:57.387Z,1.70
2022-09-17T17:05:25.618Z,1.92
2022-09-17T17:07:52.599Z,1.87
2022-09-17T17:10:20.438Z,1.75
2022-09-17T17:12:47.522Z,1.60
2022-09-17T17:15:14.523Z,1.70
2022-09-17T17:17:41.388Z,1.80
2022-09-17T17:20:09.986Z,1.60
2022-09-17T17:22:37.986Z,2.00
2022-09-17T17:25:06.344Z,1.50
2022-09-17T17:27:34.067Z,1.70
2022-09-17T17:30:04.658Z,1.58
2022-09-17T17:32:31.792Z,1.67
2022-09-17T17:34:58.724Z,1.40
2022-09-17T17:37:26.947Z,1.55
2022-09-17T17:39:54.529Z,1.80
2022-09-17T17:42:21.836Z,1.15
2022-09-17T17:44:48.749Z,1.50
2022-09-17T17:47:15.685Z,1.62
2022-09-17T17:49:44.655Z,1.60
2022-09-17T17:52:11.603Z,1.60
2022-09-17T17:54:38.510Z,1.80
2022-09-17T17:57:05.439Z,1.95
2022-09-17T17:59:32.367Z,1.95
2022-09-17T18:01:59.350Z,1.90
2022-09-17T18:04:26.387Z,1.90
2022-09-17T18:06:53.244Z,1.95
2022-09-17T18:09:20.156Z,1.92
2022-09-17T18:11:47.016Z,1.77
2022-09-17T18:14:14.179Z,1.92
2022-09-17T18:16:41.092Z,1.70
2022-09-17T18:19:09.788Z,2.10
2022-09-17T18:21:36.663Z,2.20
2022-09-17T18:24:03.709Z,2.17
2022-09-17T18:26:31.719Z,1.80
2022-09-17T18:28:58.600Z,1.90
2022-09-17T18:31:29.535Z,2.22
2022-09-17T18:33:58.786Z,2.12
2022-09-17T18:36:27.290Z,2.20
2022-09-17T18:39:16.715Z,2.10
2022-09-17T18:41:48.573Z,2.10
2022-09-17T18:44:15.523Z,1.70
2022-09-17T18:46:42.835Z,2.08
2022-09-17T18:49:09.881Z,1.42
2022-09-17T18:51:38.057Z,1.90
2022-09-17T18:54:04.992Z,2.10
2022-09-17T18:56:36.030Z,1.67
2022-09-17T18:59:07.757Z,1.75
2022-09-17T19:01:35.646Z,1.70
2022-09-17T19:04:03.060Z,1.30
2022-09-17T19:06:30.651Z,1.50
2022-09-17T19:09:00.841Z,1.70
2022-09-17T19:11:28.106Z,1.60
2022-09-17T19:13:55.261Z,1.45
2022-09-17T19:16:22.555Z,1.33
2022-09-17T19:18:49.826Z,1.50
2022-09-17T19:21:18.878Z,1.52
2022-09-17T19:23:47.402Z,1.77
2022-09-17T19:26:16.839Z,1.08
2022-09-17T19:28:43.822Z,1.30
2022-09-17T19:31:13.433Z,1.20
2022-09-17T19:33:40.414Z,1.30
2022-09-17T19:36:10.779Z,1.20
2022-09-17T19:38:38.160Z,1.10
2022-09-17T19:41:07.313Z,0.82
2022-09-17T19:43:34.352Z,1.00
2022-09-17T19:46:27.675Z,1.17
2022-09-17T19:48:56.542Z,1.00
2022-09-17T19:51:26.019Z,0.90
2022-09-17T19:53:53.341Z,0.95
2022-09-17T19:56:23.213Z,0.80
2022-09-17T19:58:50.586Z,0.73
2022-09-17T20:01:17.884Z,0.90
2022-09-17T20:03:45.675Z,0.82
2022-09-17T20:06:14.415Z,0.73
2022-09-17T20:08:50.419Z,0.82
2022-09-17T20:11:21.683Z,0.85
2022-09-17T20:13:48.965Z,0.90
2022-09-17T20:16:18.942Z,0.70
2022-09-17T20:18:46.111Z,0.90
2022-09-17T20:21:15.512Z,0.90
2022-09-17T20:23:42.564Z,0.80
2022-09-17T20:26:10.080Z,0.70
2022-09-17T20:28:36.979Z,0.77
2022-09-17T20:31:12.697Z,0.90
2022-09-17T20:33:39.615Z,0.60
2022-09-17T20:36:10.342Z,0.80
2022-09-17T20:41:24.906Z,1.00
2022-09-17T20:43:52.843Z,0.95
2022-09-17T20:46:24.822Z,1.00
2022-09-17T20:48:55.041Z,0.90
2022-09-17T20:51:23.694Z,0.93
2022-09-17T20:53:51.259Z,1.10
2022-09-17T20:56:22.521Z,0.90
2022-09-17T20:59:07.953Z,1.05
2022-09-17T21:01:35.898Z,1.00
2022-09-17T21:04:04.510Z,0.90
2022-09-17T21:06:33.433Z,1.10
2022-09-17T21:09:00.776Z,1.40
2022-09-17T21:11:29.348Z,1.05
2022-09-17T21:13:56.215Z,1.20
2022-09-17T21:16:23.161Z,1.05
2022-09-17T21:18:58.545Z,1.23
2022-09-17T21:21:26.318Z,1.23
2022-09-17T21:23:53.597Z,1.30
2022-09-17T21:26:22.876Z,1.10
2022-09-17T21:28:51.263Z,1.00
2022-09-17T21:31:29.591Z,1.30
2022-09-17T21:34:03.472Z,1.92
2022-09-17T21:36:32.833Z,1.20
2022-09-17T21:39:02.746Z,1.00
2022-09-17T21:41:30.110Z,1.37
2022-09-17T21:43:56.978Z,1.10
2022-09-17T21:46:26.337Z,1.37
2022-09-17T21:48:56.078Z,1.52
2022-09-17T21:51:25.168Z,1.45
2022-09-17T21:53:53.866Z,1.25
2022-09-17T21:56:21.739Z,1.60
2022-09-17T21:58:56.462Z,1.10
2022-09-17T22:01:31.596Z,1.30
2022-09-17T22:03:59.505Z,1.45
2022-09-17T22:06:30.157Z,1.40
2022-09-17T22:08:58.614Z,1.23
2022-09-17T22:11:29.715Z,2.75
2022-09-17T22:14:00.873Z,1.55
2022-09-17T22:16:30.820Z,1.60
2022-09-17T22:18:59.679Z,1.80
2022-09-17T22:21:28.207Z,1.42
2022-09-17T22:23:57.553Z,1.50
2022-09-17T22:26:25.593Z,1.60
2022-09-17T22:28:52.858Z,1.50
2022-09-17T22:31:20.558Z,1.60
2022-09-17T22:33:48.429Z,1.50
2022-09-17T22:36:20.715Z,1.60
2022-09-17T22:38:49.562Z,1.50
2022-09-17T22:41:18.628Z,1.70
2022-09-17T22:43:45.862Z,1.70
2022-09-17T22:46:19.724Z,1.40
2022-09-17T22:48:47.592Z,1.40
2022-09-17T22:51:15.115Z,1.73
2022-09-17T22:53:42.424Z,1.75
2022-09-17T22:56:14.598Z,1.62
2022-09-17T22:58:42.492Z,1.45
2022-09-17T23:01:15.822Z,1.30
2022-09-17T23:03:43.471Z,1.20
2022-09-17T23:06:18.773Z,1.23
2022-09-17T23:08:45.679Z,1.30
2022-09-17T23:11:24.069Z,1.58
2022-09-17T23:13:51.839Z,1.20
2022-09-17T23:16:19.579Z,1.30
2022-09-17T23:18:46.591Z,1.50
2022-09-17T23:21:16.642Z,1.83
2022-09-17T23:23:45.411Z,1.23
2022-09-17T23:26:18.777Z,2.10
2022-09-17T23:28:45.970Z,2.22
2022-09-17T23:31:18.379Z,1.20
2022-09-17T23:33:46.235Z,1.30
2022-09-17T23:36:16.038Z,1.20
2022-09-17T23:38:44.614Z,1.10
2022-09-17T23:41:29.421Z,1.33
2022-09-17T23:43:58.773Z,0.80
2022-09-17T23:46:27.115Z,1.00
2022-09-17T23:48:54.550Z,1.05
2022-09-17T23:51:22.719Z,1.48
2022-09-17T23:53:49.736Z,1.10
2022-09-17T23:56:19.700Z,1.20
2022-09-17T23:58:46.665Z,1.60
